Time;durP1;ratioP1;P1;durP2;ratioP2;P2;SDS_P1;SDS_P2;PMS_P1;PMS_P2;Temp;Humidity;BMP_temperature;BMP_pressure;BME280_temperature;BME280_humidity;BME280_pressure;Samples;Min_cycle;Max_cycle;Signal;HPM_P1;HPM_P2
2023/09/11 00:01:14;;;;;;;16.75;10.98;;;;;;;;;;5053451;28;20029;-77
2023/09/11 00:03:39;;;;;;;13.40;9.70;;;;;;;;;;5053711;28;20024;-76
2023/09/11 00:06:06;;;;;;;11.10;9.93;;;;;;;;;;5053389;28;20135;-77
2023/09/11 00:08:31;;;;;;;14.38;9.88;;;;;;;;;;5053481;28;20020;-76
2023/09/11 00:10:58;;;;;;;13.55;10.23;;;;;;;;;;5052501;28;20039;-75
2023/09/11 00:13:23;;;;;;;13.52;9.90;;;;;;;;;;5053422;28;20036;-77
2023/09/11 00:15:49;;;;;;;13.25;9.75;;;;;;;;;;5053564;28;20021;-77
2023/09/11 00:18:15;;;;;;;12.27;9.88;;;;;;;;;;5053208;28;20071;-77
2023/09/11 00:20:40;;;;;;;13.40;10.15;;;;;;;;;;5053346;28;20063;-77
2023/09/11 00:23:08;;;;;;;13.10;9.63;;;;;;;;;;5053659;28;20025;-77
2023/09/11 00:25:34;;;;;;;13.77;10.15;;;;;;;;;;5053779;28;20024;-77
2023/09/11 00:28:00;;;;;;;15.63;9.55;;;;;;;;;;5053431;28;20027;-77
2023/09/11 00:30:26;;;;;;;12.60;9.43;;;;;;;;;;5053567;28;20112;-77
2023/09/11 00:32:52;;;;;;;15.75;9.55;;;;;;;;;;5052942;28;20522;-76
2023/09/11 00:35:17;;;;;;;11.80;9.70;;;;;;;;;;5070702;28;20037;-77
2023/09/11 00:37:43;;;;;;;13.13;9.73;;;;;;;;;;5036336;28;20032;-77
2023/09/11 00:40:09;;;;;;;11.30;9.52;;;;;;;;;;5052574;28;20033;-77
2023/09/11 00:42:34;;;;;;;16.88;10.82;;;;;;;;;;5053015;28;20071;-77
2023/09/11 00:45:00;;;;;;;17.88;10.35;;;;;;;;;;5052553;28;20035;-78
2023/09/11 00:47:25;;;;;;;13.43;9.52;;;;;;;;;;5070760;28;20437;-77
2023/09/11 00:49:54;;;;;;;13.25;9.93;;;;;;;;;;5052481;28;20074;-77
2023/09/11 00:52:20;;;;;;;15.18;10.02;;;;;;;;;;5052632;28;20467;-78
2023/09/11 00:54:46;;;;;;;16.55;10.55;;;;;;;;;;5052600;28;20108;-78
2023/09/11 00:57:17;;;;;;;17.77;10.43;;;;;;;;;;5052656;28;20079;-76
2023/09/11 00:59:48;;;;;;;11.85;9.35;;;;;;;;;;5051043;28;20123;-77
2023/09/11 01:02:14;;;;;;;13.10;9.80;;;;;;;;;;5030584;28;20025;-77
2023/09/11 01:04:41;;;;;;;21.38;10.13;;;;;;;;;;5030759;28;20575;-77
2023/09/11 01:07:07;;;;;;;13.45;9.65;;;;;;;;;;5030445;28;20021;-77
2023/09/11 01:09:34;;;;;;;16.60;10.25;;;;;;;;;;5012733;28;20071;-76
2023/09/11 01:12:00;;;;;;;16.33;9.90;;;;;;;;;;5030417;28;20234;-77
2023/09/11 01:14:26;;;;;;;14.27;10.55;;;;;;;;;;5030342;28;20696;-77
2023/09/11 01:17:01;;;;;;;13.48;9.98;;;;;;;;;;5030427;28;20036;-76
2023/09/11 01:19:30;;;;;;;15.10;10.05;;;;;;;;;;5012687;28;20021;-77
2023/09/11 01:22:08;;;;;;;12.48;9.25;;;;;;;;;;5030334;28;20463;-75
2023/09/11 01:25:11;;;;;;;17.98;9.70;;;;;;;;;;5012348;28;20049;-77
2023/09/11 01:27:57;;;;;;;15.90;10.18;;;;;;;;;;5030365;28;20508;-78
2023/09/11 01:30:25;;;;;;;13.68;9.98;;;;;;;;;;5030144;28;20057;-76
2023/09/11 01:32:51;;;;;;;13.30;9.32;;;;;;;;;;5012519;28;20022;-77
2023/09/11 01:35:17;;;;;;;13.32;10.68;;;;;;;;;;5012522;28;20079;-76
2023/09/11 01:37:42;;;;;;;15.13;10.02;;;;;;;;;;5030456;28;20350;-76
2023/09/11 01:40:08;;;;;;;12.52;9.63;;;;;;;;;;5012335;28;20512;-77
2023/09/11 01:42:40;;;;;;;13.95;10.05;;;;;;;;;;5012819;28;20033;-78
2023/09/11 01:45:08;;;;;;;15.38;9.57;;;;;;;;;;5012348;28;20105;-76
2023/09/11 01:47:34;;;;;;;16.92;11.27;;;;;;;;;;5030724;28;20024;-77
2023/09/11 01:50:01;;;;;;;15.00;9.88;;;;;;;;;;5012613;28;20111;-79
2023/09/11 01:52:27;;;;;;;13.88;10.57;;;;;;;;;;5013096;28;20041;-80
2023/09/11 01:54:56;;;;;;;15.25;9.95;;;;;;;;;;5030617;28;20118;-80
2023/09/11 01:57:24;;;;;;;18.27;10.20;;;;;;;;;;5030700;28;20069;-78
2023/09/11 01:59:50;;;;;;;12.98;9.73;;;;;;;;;;5012857;28;20029;-76
2023/09/11 02:02:15;;;;;;;14.77;10.63;;;;;;;;;;5012410;28;20543;-79
2023/09/11 02:04:41;;;;;;;12.70;9.68;;;;;;;;;;5012614;28;20030;-81
2023/09/11 02:07:07;;;;;;;13.95;10.07;;;;;;;;;;5012398;28;20057;-79
2023/09/11 02:09:32;;;;;;;16.20;10.50;;;;;;;;;;5012827;28;20118;-80
2023/09/11 02:11:58;;;;;;;16.17;10.50;;;;;;;;;;5012654;28;20033;-80
2023/09/11 02:14:23;;;;;;;15.05;10.32;;;;;;;;;;5012599;28;20032;-80
2023/09/11 02:16:49;;;;;;;14.68;10.40;;;;;;;;;;5012443;28;20029;-79
2023/09/11 02:19:14;;;;;;;14.50;11.32;;;;;;;;;;5012712;28;20039;-79
2023/09/11 02:21:40;;;;;;;13.43;10.48;;;;;;;;;;5013121;28;20788;-79
2023/09/11 02:24:06;;;;;;;14.68;10.50;;;;;;;;;;5013196;28;20053;-79
2023/09/11 02:26:31;;;;;;;14.25;10.52;;;;;;;;;;5012796;28;20072;-79
2023/09/11 02:28:59;;;;;;;15.35;10.05;;;;;;;;;;5013463;28;20083;-80
2023/09/11 02:31:25;;;;;;;17.25;11.00;;;;;;;;;;5018876;28;20021;-77
2023/09/11 02:33:50;;;;;;;15.32;10.68;;;;;;;;;;5039834;28;20032;-80
2023/09/11 02:36:16;;;;;;;13.20;10.43;;;;;;;;;;5025600;28;20169;-78
2023/09/11 02:38:41;;;;;;;17.25;12.10;;;;;;;;;;5025568;28;20029;-77
2023/09/11 02:41:07;;;;;;;15.88;9.98;;;;;;;;;;5029434;28;20025;-78
2023/09/11 02:43:32;;;;;;;16.58;11.20;;;;;;;;;;5034752;28;20029;-78
2023/09/11 02:45:58;;;;;;;14.48;10.18;;;;;;;;;;5029079;28;20436;-79
2023/09/11 02:48:24;;;;;;;11.75;9.70;;;;;;;;;;5015588;28;20086;-80
2023/09/11 02:50:49;;;;;;;18.15;10.50;;;;;;;;;;5016335;28;20369;-78
2023/09/11 02:53:16;;;;;;;13.20;10.02;;;;;;;;;;5033555;28;20041;-80
2023/09/11 02:55:44;;;;;;;16.20;10.50;;;;;;;;;;5033830;28;20033;-80
2023/09/11 02:58:09;;;;;;;16.80;11.27;;;;;;;;;;5021179;28;20084;-78
2023/09/11 03:00:35;;;;;;;13.80;10.63;;;;;;;;;;5037743;28;20301;-79
2023/09/11 03:03:05;;;;;;;15.95;10.52;;;;;;;;;;5018676;28;20029;-79
2023/09/11 03:05:34;;;;;;;15.77;11.20;;;;;;;;;;5016575;28;20049;-79
2023/09/11 03:08:00;;;;;;;16.85;11.10;;;;;;;;;;5035247;28;20107;-80
2023/09/11 03:10:31;;;;;;;13.43;9.63;;;;;;;;;;5016921;28;20033;-78
2023/09/11 03:12:57;;;;;;;15.38;11.05;;;;;;;;;;5003909;28;20022;-78
2023/09/11 03:15:30;;;;;;;15.68;11.02;;;;;;;;;;5034587;28;20175;-77
2023/09/11 03:17:55;;;;;;;12.98;10.27;;;;;;;;;;5035568;28;20069;-78
2023/09/11 03:20:21;;;;;;;55.65;14.13;;;;;;;;;;5035019;28;20026;-78
2023/09/11 03:22:46;;;;;;;15.90;9.88;;;;;;;;;;5036190;28;20041;-78
2023/09/11 03:25:12;;;;;;;26.30;11.52;;;;;;;;;;5033546;28;20044;-79
2023/09/11 03:27:38;;;;;;;13.90;10.82;;;;;;;;;;5034011;28;20098;-79
2023/09/11 03:30:04;;;;;;;16.67;10.68;;;;;;;;;;5039832;28;20111;-78
2023/09/11 03:32:29;;;;;;;16.02;10.80;;;;;;;;;;5038346;28;20025;-80
2023/09/11 03:34:55;;;;;;;14.73;9.88;;;;;;;;;;5037595;28;20117;-78
2023/09/11 03:37:22;;;;;;;17.67;11.00;;;;;;;;;;5040574;28;20037;-78
2023/09/11 03:39:47;;;;;;;15.35;10.93;;;;;;;;;;5033662;28;20116;-78
2023/09/11 03:42:13;;;;;;;15.48;10.73;;;;;;;;;;5030969;28;20184;-77
2023/09/11 03:44:38;;;;;;;17.55;11.23;;;;;;;;;;5031466;28;20033;-79
2023/09/11 03:47:04;;;;;;;16.73;11.32;;;;;;;;;;5030152;28;20037;-79
2023/09/11 03:49:30;;;;;;;16.83;10.80;;;;;;;;;;5032347;28;20628;-77
2023/09/11 03:51:55;;;;;;;18.65;10.85;;;;;;;;;;5032497;28;20039;-79
2023/09/11 03:54:21;;;;;;;15.93;10.73;;;;;;;;;;5032526;28;20047;-78
2023/09/11 03:56:46;;;;;;;14.88;10.75;;;;;;;;;;5031645;28;20336;-78
2023/09/11 03:59:13;;;;;;;14.60;10.63;;;;;;;;;;5052219;28;20076;-78
2023/09/11 04:01:39;;;;;;;12.70;10.40;;;;;;;;;;5034092;28;20473;-79
2023/09/11 04:04:05;;;;;;;15.73;10.95;;;;;;;;;;5034095;28;20116;-77
2023/09/11 04:06:30;;;;;;;16.63;10.88;;;;;;;;;;5052103;28;20448;-80
2023/09/11 04:08:56;;;;;;;14.48;10.85;;;;;;;;;;5034440;28;20071;-79
2023/09/11 04:11:22;;;;;;;17.88;10.98;;;;;;;;;;5053432;28;20025;-80
2023/09/11 04:13:48;;;;;;;17.63;11.45;;;;;;;;;;5053785;28;20036;-80
2023/09/11 04:16:15;;;;;;;15.85;11.18;;;;;;;;;;5036659;28;20128;-78
2023/09/11 04:18:44;;;;;;;17.20;12.05;;;;;;;;;;5055091;28;20044;-80
2023/09/11 04:21:13;;;;;;;13.82;10.90;;;;;;;;;;5041344;28;20075;-78
2023/09/11 04:23:38;;;;;;;15.25;11.98;;;;;;;;;;5039010;28;20033;-79
2023/09/11 04:26:06;;;;;;;19.05;11.88;;;;;;;;;;5034352;28;20035;-79
2023/09/11 04:28:33;;;;;;;15.35;11.95;;;;;;;;;;5051486;28;20021;-80
2023/09/11 04:30:59;;;;;;;16.77;10.75;;;;;;;;;;5033747;28;20052;-79
2023/09/11 04:33:24;;;;;;;15.25;11.65;;;;;;;;;;5033190;28;20033;-80
2023/09/11 04:35:51;;;;;;;15.93;11.00;;;;;;;;;;5051834;28;20025;-80
2023/09/11 04:38:16;;;;;;;14.35;10.73;;;;;;;;;;5032260;28;20667;-76
2023/09/11 04:40:42;;;;;;;16.45;11.25;;;;;;;;;;5036625;28;20039;-75
2023/09/11 04:43:09;;;;;;;19.50;12.00;;;;;;;;;;5029736;28;20025;-78
2023/09/11 04:45:35;;;;;;;17.25;11.38;;;;;;;;;;5031581;28;20121;-76
2023/09/11 04:48:00;;;;;;;16.83;11.75;;;;;;;;;;5033715;28;20116;-77
2023/09/11 04:50:26;;;;;;;17.60;12.75;;;;;;;;;;5032774;28;20488;-78
2023/09/11 04:52:55;;;;;;;18.23;11.65;;;;;;;;;;5044994;28;20122;-76
2023/09/11 04:55:21;;;;;;;16.75;12.20;;;;;;;;;;5045498;28;20033;-76
2023/09/11 04:57:46;;;;;;;18.10;12.38;;;;;;;;;;5032802;28;20041;-75
2023/09/11 05:00:13;;;;;;;19.23;11.93;;;;;;;;;;5047546;28;20028;-78
2023/09/11 05:02:39;;;;;;;20.02;11.68;;;;;;;;;;5049505;28;20128;-77
2023/09/11 05:05:05;;;;;;;16.77;11.90;;;;;;;;;;5042944;28;20105;-78
2023/09/11 05:07:31;;;;;;;16.38;11.43;;;;;;;;;;5029645;28;20072;-76
2023/09/11 05:09:57;;;;;;;17.58;12.85;;;;;;;;;;5040442;28;20025;-77
2023/09/11 05:12:23;;;;;;;18.58;12.13;;;;;;;;;;5029190;28;20067;-78
2023/09/11 05:14:48;;;;;;;17.70;12.10;;;;;;;;;;5029412;28;20059;-76
2023/09/11 05:17:13;;;;;;;16.50;12.73;;;;;;;;;;5023930;28;20029;-75
2023/09/11 05:19:39;;;;;;;19.08;12.27;;;;;;;;;;5026517;28;20803;-78
2023/09/11 05:22:05;;;;;;;15.93;11.68;;;;;;;;;;5046639;28;20059;-75
2023/09/11 05:24:32;;;;;;;17.77;12.07;;;;;;;;;;5034558;28;20392;-76
2023/09/11 05:26:57;;;;;;;18.08;14.38;;;;;;;;;;5025971;28;20030;-76
2023/09/11 05:29:23;;;;;;;17.02;11.85;;;;;;;;;;5046118;28;20086;-79
2023/09/11 05:31:49;;;;;;;17.98;11.68;;;;;;;;;;5047563;28;20037;-78
2023/09/11 05:34:14;;;;;;;16.17;12.50;;;;;;;;;;5051689;28;20025;-77
2023/09/11 05:36:40;;;;;;;20.48;11.23;;;;;;;;;;5031275;28;20098;-78
2023/09/11 05:39:20;;;;;;;18.77;12.15;;;;;;;;;;5028732;28;20033;-79
2023/09/11 05:41:47;;;;;;;20.58;10.90;;;;;;;;;;5026138;28;20036;-78
2023/09/11 05:44:14;;;;;;;16.13;12.30;;;;;;;;;;5040703;28;20128;-79
2023/09/11 05:46:40;;;;;;;15.93;11.68;;;;;;;;;;5042447;28;20081;-76
2023/09/11 05:49:05;;;;;;;18.00;12.18;;;;;;;;;;5045653;28;20037;-72
2023/09/11 05:51:31;;;;;;;17.27;12.52;;;;;;;;;;5031250;28;20520;-75
2023/09/11 05:53:56;;;;;;;22.30;12.27;;;;;;;;;;5031565;28;20138;-74
2023/09/11 05:56:22;;;;;;;16.40;12.20;;;;;;;;;;5036012;28;20543;-75
2023/09/11 05:58:48;;;;;;;19.13;12.27;;;;;;;;;;5044074;28;20136;-76
2023/09/11 06:01:14;;;;;;;18.75;11.98;;;;;;;;;;5026236;28;20629;-78
2023/09/11 06:03:39;;;;;;;15.90;11.50;;;;;;;;;;5035845;28;20500;-74
2023/09/11 06:06:05;;;;;;;17.17;11.15;;;;;;;;;;5023535;28;20102;-78
2023/09/11 06:08:32;;;;;;;20.10;13.27;;;;;;;;;;5023131;28;20036;-74
2023/09/11 06:10:59;;;;;;;24.38;14.80;;;;;;;;;;5029248;28;20032;-79
2023/09/11 06:13:26;;;;;;;14.57;11.52;;;;;;;;;;5047486;28;20029;-73
2023/09/11 06:15:51;;;;;;;19.55;12.77;;;;;;;;;;5025438;28;20036;-73
2023/09/11 06:18:17;;;;;;;19.80;13.07;;;;;;;;;;5020739;28;20040;-74
2023/09/11 06:20:46;;;;;;;15.23;11.98;;;;;;;;;;5046175;28;20065;-79
2023/09/11 06:23:12;;;;;;;19.17;12.23;;;;;;;;;;5027598;28;20119;-75
2023/09/11 06:25:38;;;;;;;20.17;11.85;;;;;;;;;;5054096;28;20473;-76
2023/09/11 06:28:06;;;;;;;16.20;12.07;;;;;;;;;;5028616;28;20025;-79
2023/09/11 06:30:32;;;;;;;20.35;12.13;;;;;;;;;;5030509;28;20037;-72
2023/09/11 06:32:58;;;;;;;19.85;12.55;;;;;;;;;;5042116;28;20040;-73
2023/09/11 06:35:23;;;;;;;21.58;12.80;;;;;;;;;;5046094;28;20051;-73
2023/09/11 06:37:50;;;;;;;16.92;11.55;;;;;;;;;;5027045;28;20060;-74
2023/09/11 06:40:17;;;;;;;18.35;11.88;;;;;;;;;;5030427;28;20119;-73
2023/09/11 06:42:42;;;;;;;16.08;11.57;;;;;;;;;;5029560;28;20135;-74
2023/09/11 06:45:08;;;;;;;15.57;12.55;;;;;;;;;;5045183;28;20025;-74
2023/09/11 06:47:34;;;;;;;18.17;12.20;;;;;;;;;;5051369;28;20678;-74
2023/09/11 06:49:59;;;;;;;16.80;11.77;;;;;;;;;;5031558;28;20710;-74
2023/09/11 06:52:25;;;;;;;17.73;11.60;;;;;;;;;;5054575;28;20036;-76
2023/09/11 06:54:54;;;;;;;16.30;11.93;;;;;;;;;;5034377;28;20175;-79
2023/09/11 06:57:20;;;;;;;15.35;12.23;;;;;;;;;;5040417;28;20039;-74
2023/09/11 06:59:45;;;;;;;16.52;11.30;;;;;;;;;;5028641;28;20029;-77
2023/09/11 07:02:11;;;;;;;17.67;11.90;;;;;;;;;;5041559;28;20030;-75
2023/09/11 07:04:40;;;;;;;15.75;11.10;;;;;;;;;;5030878;28;20453;-74
2023/09/11 07:07:56;;;;;;;19.20;10.77;;;;;;;;;;5031060;28;20020;-75
2023/09/11 07:10:32;;;;;;;18.10;12.45;;;;;;;;;;5056777;28;20058;-77
2023/09/11 07:13:29;;;;;;;15.13;11.43;;;;;;;;;;5055794;28;20056;-74
2023/09/11 07:16:55;;;;;;;;;;;;;;;;;;;;;
2023/09/11 07:27:12;;;;;;;;;;;;;;;;;;4965098;28;20114;-74
2023/09/11 07:40:24;;;;;;;19.60;12.02;;;;;;;;;;4895725;29;20040;-73
2023/09/11 07:43:11;;;;;;;15.32;12.48;;;;;;;;;;4975829;28;20462;-74
2023/09/11 07:45:49;;;;;;;13.95;11.70;;;;;;;;;;4971697;28;20022;-73
2023/09/11 07:48:45;;;;;;;20.38;11.48;;;;;;;;;;4984712;28;20034;-75
2023/09/11 07:51:40;;;;;;;16.58;11.27;;;;;;;;;;5035756;28;20047;-75
2023/09/11 07:55:02;;;;;;;18.92;10.65;;;;;;;;;;5036513;28;20047;-75
2023/09/11 08:17:41;;;;;;;20.58;12.05;;;;;;;;;;6167690;23;20044;-75
2023/09/11 08:20:21;;;;;;;17.75;11.18;;;;;;;;;;6140181;23;20044;-77
2023/09/11 08:23:02;;;;;;;15.90;10.70;;;;;;;;;;6137806;23;20017;-74
2023/09/11 08:25:43;;;;;;;16.80;10.83;;;;;;;;;;6138710;23;20081;-75
2023/09/11 08:28:38;;;;;;;;;;;;;;;;;;6141742;23;20369;-74
2023/09/11 08:31:40;;;;;;;15.85;10.55;;;;;;;;;;6128786;23;19905;-76
2023/09/11 08:41:00;;;;;;;15.60;11.32;;;;;;;;;;6029658;23;20010;-74
2023/09/11 08:43:43;;;;;;;15.32;11.13;;;;;;;;;;6077425;23;20022;-74
2023/09/11 08:46:45;;;;;;;16.38;11.32;;;;;;;;;;6134160;23;20092;-76
2023/09/11 08:49:18;;;;;;;;;;;;;;;;;;6165703;23;20005;-76
2023/09/11 08:52:14;;;;;;;14.57;11.35;;;;;;;;;;6164126;23;19904;-74
2023/09/11 08:54:49;;;;;;;17.73;11.32;;;;;;;;;;6136867;23;20021;-77
2023/09/11 08:57:40;;;;;;;17.67;10.82;;;;;;;;;;6137457;23;20009;-75
2023/09/11 09:00:24;;;;;;;20.98;10.75;;;;;;;;;;6113943;23;20188;-77
2023/09/11 09:03:19;;;;;;;14.38;9.60;;;;;;;;;;6114994;23;20125;-75
2023/09/11 09:06:22;;;;;;;19.00;10.55;;;;;;;;;;6164646;23;20013;-75
2023/09/11 09:09:00;;;;;;;13.85;10.13;;;;;;;;;;6137446;23;20032;-76
2023/09/11 09:12:13;;;;;;;18.02;10.20;;;;;;;;;;6130272;23;20446;-76
2023/09/11 09:15:05;;;;;;;14.75;10.05;;;;;;;;;;6070469;23;20027;-75
2023/09/11 09:17:58;;;;;;;13.18;9.55;;;;;;;;;;6085953;23;20022;-76
2023/09/11 09:23:49;;;;;;;20.70;18.77;;;;;;;;;;6009427;23;20016;-74
2023/09/11 09:26:43;;;;;;;17.83;10.88;;;;;;;;;;5985080;23;20008;-75
2023/09/11 09:29:24;;;;;;;12.52;9.15;;;;;;;;;;5984939;23;20038;-75
2023/09/11 09:32:20;;;;;;;13.73;9.27;;;;;;;;;;5986250;23;20011;-77
2023/09/11 09:35:26;;;;;;;17.00;9.85;;;;;;;;;;5985789;23;20504;-74
2023/09/11 09:38:35;;;;;;;13.95;10.00;;;;;;;;;;5982607;23;20011;-76
2023/09/11 09:41:41;;;;;;;17.38;10.05;;;;;;;;;;6034402;23;20321;-77
2023/09/11 09:44:52;;;;;;;18.30;10.02;;;;;;;;;;6102579;23;20009;-75
2023/09/11 09:47:32;;;;;;;14.82;11.35;;;;;;;;;;6101355;23;20017;-77
2023/09/11 09:50:46;;;;;;;;;;;;;;;;;;;;;
2023/09/11 09:53:53;;;;;;;12.30;9.38;;;;;;;;;;6097155;23;20010;-77
2023/09/11 09:56:32;;;;;;;14.38;8.73;;;;;;;;;;6093731;23;20038;-72
2023/09/11 09:59:02;;;;;;;17.77;12.07;;;;;;;;;;6096470;23;20010;-74
2023/09/11 10:01:51;;;;;;;17.27;9.73;;;;;;;;;;6097502;23;20063;-77
2023/09/11 10:04:37;;;;;;;15.02;9.82;;;;;;;;;;6101391;23;20002;-76
2023/09/11 10:07:41;;;;;;;13.25;9.18;;;;;;;;;;6075139;23;20247;-77
2023/09/11 10:10:36;;;;;;;9.43;8.15;;;;;;;;;;6098842;23;20009;-76
2023/09/11 10:13:16;;;;;;;10.90;8.40;;;;;;;;;;6109734;23;20100;-77
2023/09/11 10:15:57;;;;;;;15.32;8.88;;;;;;;;;;6133620;23;20017;-76
2023/09/11 10:18:44;;;;;;;;;;;;;;;;;;6131920;23;20465;-75
2023/09/11 10:21:34;;;;;;;13.07;8.35;;;;;;;;;;6131715;23;19909;-77
2023/09/11 10:24:15;;;;;;;13.70;10.00;;;;;;;;;;6161457;23;20116;-78
2023/09/11 10:27:15;;;;;;;14.07;9.48;;;;;;;;;;6163973;23;20045;-77
2023/09/11 10:30:06;;;;;;;15.10;9.63;;;;;;;;;;6138482;23;20013;-78
2023/09/11 10:32:59;;;;;;;35.65;11.38;;;;;;;;;;6137814;23;20016;-76
2023/09/11 10:35:47;;;;;;;12.43;7.70;;;;;;;;;;6133453;23;20042;-75
2023/09/11 10:38:44;;;;;;;15.25;8.55;;;;;;;;;;6139466;23;20010;-76
2023/09/11 10:41:12;;;;;;;13.52;8.75;;;;;;;;;;6130632;23;20064;-74
2023/09/11 10:43:57;;;;;;;14.70;8.50;;;;;;;;;;6159803;23;20001;-76
2023/09/11 10:46:34;;;;;;;9.52;8.38;;;;;;;;;;6132633;23;20009;-77
2023/09/11 10:49:17;;;;;;;12.00;7.97;;;;;;;;;;6132603;23;20005;-75
2023/09/11 10:51:56;;;;;;;12.75;8.40;;;;;;;;;;6132017;23;20009;-73
2023/09/11 10:55:34;;;;;;;13.25;8.10;;;;;;;;;;6132104;23;20068;-73
2023/09/11 10:57:45;;;;;;;;;;;;;;;;;;;;;
2023/09/11 11:00:38;;;;;;;10.63;8.00;;;;;;;;;;6155068;23;20076;-75
2023/09/11 11:03:46;;;;;;;11.45;8.52;;;;;;;;;;6135386;23;20106;-78
2023/09/11 11:17:06;;;;;;;15.00;8.45;;;;;;;;;;6117559;23;20101;-76
2023/09/11 11:23:30;;;;;;;11.27;8.45;;;;;;;;;;6036616;23;20325;-77
2023/09/11 11:26:49;;;;;;;17.00;8.70;;;;;;;;;;6036698;23;20331;-76
2023/09/11 11:29:23;;;;;;;11.23;8.60;;;;;;;;;;6034443;23;20338;-77
2023/09/11 11:35:40;;;;;;;16.83;8.75;;;;;;;;;;5987241;23;20015;-77
2023/09/11 11:38:59;;;;;;;12.85;9.40;;;;;;;;;;6013798;23;20030;-77
2023/09/11 11:42:12;;;;;;;11.45;8.05;;;;;;;;;;6012162;23;20011;-75
2023/09/11 11:45:34;;;;;;;13.98;8.40;;;;;;;;;;6031627;23;20011;-76
2023/09/11 11:51:53;;;;;;;19.77;8.63;;;;;;;;;;5996462;23;20019;-77
2023/09/11 11:54:47;;;;;;;15.55;9.00;;;;;;;;;;5986109;23;20022;-77
2023/09/11 11:57:55;;;;;;;;;;;;;;;;;;;;;
2023/09/11 12:04:20;;;;;;;14.82;7.97;;;;;;;;;;5953248;24;20371;-77
2023/09/11 12:07:28;;;;;;;9.98;7.93;;;;;;;;;;5913237;24;20023;-77
2023/09/11 12:10:29;;;;;;;10.43;8.40;;;;;;;;;;5928600;23;20089;-77
2023/09/11 12:13:14;;;;;;;10.88;8.27;;;;;;;;;;6004733;23;20014;-75
2023/09/11 12:16:01;;;;;;;12.95;8.23;;;;;;;;;;6034411;23;20016;-76
2023/09/11 12:22:09;;;;;;;;;;;;;;;;;;6038112;23;20073;-79
2023/09/11 12:25:12;;;;;;;11.90;7.90;;;;;;;;;;6013985;23;19906;-80
2023/09/11 12:30:53;;;;;;;9.60;7.57;;;;;;;;;;5993521;23;20011;-78
2023/09/11 12:33:43;;;;;;;11.18;7.85;;;;;;;;;;6030217;23;20097;-78
2023/09/11 12:36:38;;;;;;;13.48;8.73;;;;;;;;;;6127690;23;20014;-78
2023/09/11 12:39:36;;;;;;;11.88;7.75;;;;;;;;;;6127041;23;20002;-80
2023/09/11 12:42:31;;;;;;;10.55;7.18;;;;;;;;;;6126921;23;20483;-78
2023/09/11 12:44:58;;;;;;;11.27;8.13;;;;;;;;;;6129288;23;20013;-79
2023/09/11 12:47:24;;;;;;;13.70;9.07;;;;;;;;;;6127549;23;20506;-76
2023/09/11 12:49:52;;;;;;;8.85;7.28;;;;;;;;;;6124681;23;20053;-78
2023/09/11 12:52:30;;;;;;;10.07;7.95;;;;;;;;;;6128395;23;20037;-78
2023/09/11 12:55:00;;;;;;;10.50;7.30;;;;;;;;;;6127186;23;20445;-79
2023/09/11 12:57:30;;;;;;;11.15;7.63;;;;;;;;;;6096840;23;20064;-78
2023/09/11 12:59:58;;;;;;;26.70;7.80;;;;;;;;;;6103109;23;20006;-76
2023/09/11 13:02:33;;;;;;;10.20;7.22;;;;;;;;;;6127700;23;20040;-78
2023/09/11 13:05:07;;;;;;;14.40;7.70;;;;;;;;;;6081824;23;20163;-76
2023/09/11 13:07:36;;;;;;;11.05;8.43;;;;;;;;;;6130469;23;20029;-76
2023/09/11 13:10:06;;;;;;;10.68;7.70;;;;;;;;;;6130612;23;20030;-77
2023/09/11 13:12:32;;;;;;;15.50;7.30;;;;;;;;;;6126269;23;20093;-76
2023/09/11 13:14:58;;;;;;;10.63;7.53;;;;;;;;;;6102197;23;20017;-76
2023/09/11 13:17:24;;;;;;;7.80;7.05;;;;;;;;;;6101454;23;20082;-78
2023/09/11 13:19:52;;;;;;;8.45;7.53;;;;;;;;;;6096477;23;20014;-76
2023/09/11 13:22:29;;;;;;;10.05;7.05;;;;;;;;;;6098800;23;20014;-74
2023/09/11 13:25:06;;;;;;;9.70;6.95;;;;;;;;;;6104492;23;20812;-77
2023/09/11 13:27:35;;;;;;;10.40;8.13;;;;;;;;;;6128679;23;20012;-76
2023/09/11 13:30:01;;;;;;;13.97;8.00;;;;;;;;;;6128816;23;20002;-76
2023/09/11 13:32:28;;;;;;;22.17;7.70;;;;;;;;;;6124721;23;20064;-75
2023/09/11 13:34:55;;;;;;;21.98;7.97;;;;;;;;;;6127269;23;20006;-77
2023/09/11 13:37:25;;;;;;;9.68;6.68;;;;;;;;;;6126392;23;20040;-74
2023/09/11 13:39:54;;;;;;;11.70;7.15;;;;;;;;;;6123452;23;20013;-76
2023/09/11 13:42:24;;;;;;;12.05;7.32;;;;;;;;;;6123652;23;20014;-76
2023/09/11 13:44:56;;;;;;;21.23;7.83;;;;;;;;;;6126521;23;20018;-77
2023/09/11 13:47:27;;;;;;;9.25;6.50;;;;;;;;;;6103822;23;20244;-76
2023/09/11 13:49:57;;;;;;;6.95;6.18;;;;;;;;;;6125535;23;20032;-78
2023/09/11 13:52:26;;;;;;;11.13;6.88;;;;;;;;;;6126231;23;20013;-76
2023/09/11 13:54:53;;;;;;;11.68;7.45;;;;;;;;;;6127439;23;20369;-78
2023/09/11 13:57:29;;;;;;;10.07;7.50;;;;;;;;;;6128747;23;20418;-77
2023/09/11 13:59:59;;;;;;;8.77;6.63;;;;;;;;;;6102176;23;20010;-78
2023/09/11 14:02:25;;;;;;;;;;;;;;;;;;6127051;23;20014;-78
2023/09/11 14:04:54;;;;;;;7.22;6.50;;;;;;;;;;6129451;23;19912;-77
2023/09/11 14:07:26;;;;;;;11.65;6.82;;;;;;;;;;6127425;23;20068;-76
2023/09/11 14:10:11;;;;;;;7.82;6.93;;;;;;;;;;6130130;23;20088;-78
2023/09/11 14:12:41;;;;;;;7.07;6.38;;;;;;;;;;6126602;23;20063;-74
2023/09/11 14:15:17;;;;;;;8.60;6.70;;;;;;;;;;6126876;23;20025;-76
2023/09/11 14:17:44;;;;;;;16.45;8.98;;;;;;;;;;6144962;23;20085;-73
2023/09/11 14:20:17;;;;;;;16.30;7.68;;;;;;;;;;6133290;23;20328;-74
2023/09/11 14:22:47;;;;;;;8.82;7.93;;;;;;;;;;6083724;23;20018;-75
2023/09/11 14:25:24;;;;;;;8.25;7.40;;;;;;;;;;6162061;23;20013;-76
2023/09/11 14:27:53;;;;;;;11.32;7.32;;;;;;;;;;6160529;23;20469;-77
2023/09/11 14:30:21;;;;;;;11.43;7.15;;;;;;;;;;6160224;23;20005;-75
2023/09/11 14:32:59;;;;;;;8.73;7.38;;;;;;;;;;6160226;23;20017;-76
2023/09/11 14:35:31;;;;;;;13.20;8.07;;;;;;;;;;6158195;23;20602;-76
2023/09/11 14:38:05;;;;;;;10.35;7.93;;;;;;;;;;6129763;23;20031;-76
2023/09/11 14:40:36;;;;;;;10.48;6.85;;;;;;;;;;6134200;23;20009;-77
2023/09/11 14:43:23;;;;;;;;;;;;;;;;;;;;;
2023/09/11 14:45:53;;;;;;;13.10;6.85;;;;;;;;;;6159068;23;20473;-76
2023/09/11 14:48:27;;;;;;;8.82;7.25;;;;;;;;;;6132426;23;20005;-77
2023/09/11 14:51:02;;;;;;;16.17;10.95;;;;;;;;;;6132678;23;20001;-75
2023/09/11 14:53:40;;;;;;;13.02;8.85;;;;;;;;;;6134335;23;20044;-76
2023/09/11 14:56:08;;;;;;;11.05;8.35;;;;;;;;;;6133377;23;20005;-79
2023/09/11 14:58:49;;;;;;;11.88;7.70;;;;;;;;;;6159501;23;20013;-78
2023/09/11 15:01:24;;;;;;;14.07;7.70;;;;;;;;;;6135091;23;20053;-75
2023/09/11 15:03:57;;;;;;;11.07;7.32;;;;;;;;;;6136090;23;20088;-72
2023/09/11 15:06:32;;;;;;;11.20;7.90;;;;;;;;;;6156715;23;20088;-79
2023/09/11 15:09:05;;;;;;;11.98;7.45;;;;;;;;;;6134548;23;20012;-77
2023/09/11 15:11:35;;;;;;;8.52;7.60;;;;;;;;;;6134532;23;20016;-74
2023/09/11 15:14:02;;;;;;;11.25;7.72;;;;;;;;;;6132637;23;20095;-75
2023/09/11 15:16:28;;;;;;;18.05;8.43;;;;;;;;;;6133023;23;20017;-73
2023/09/11 15:19:04;;;;;;;15.20;7.90;;;;;;;;;;6131609;23;20010;-74
2023/09/11 15:21:38;;;;;;;12.00;8.23;;;;;;;;;;6131210;23;20404;-74
2023/09/11 15:24:17;;;;;;;15.63;9.23;;;;;;;;;;6131406;23;20065;-74
2023/09/11 15:26:50;;;;;;;9.38;7.53;;;;;;;;;;6132398;23;20067;-74
2023/09/11 15:29:29;;;;;;;13.00;8.00;;;;;;;;;;6156879;23;20001;-76
2023/09/11 15:32:07;;;;;;;11.73;7.60;;;;;;;;;;6155518;23;20012;-77
2023/09/11 15:34:42;;;;;;;10.45;7.35;;;;;;;;;;6159024;23;20009;-75
2023/09/11 15:37:21;;;;;;;9.00;7.53;;;;;;;;;;6133449;23;20001;-76
2023/09/11 15:39:49;;;;;;;8.52;7.57;;;;;;;;;;6131833;23;20006;-74
2023/09/11 15:42:16;;;;;;;10.00;7.40;;;;;;;;;;6128917;23;20010;-79
2023/09/11 15:44:56;;;;;;;13.18;8.00;;;;;;;;;;6155628;23;20081;-73
2023/09/11 15:47:24;;;;;;;13.30;8.25;;;;;;;;;;6129401;23;20087;-73
2023/09/11 15:49:54;;;;;;;16.75;8.15;;;;;;;;;;6129912;23;20468;-76
2023/09/11 15:52:27;;;;;;;9.63;7.95;;;;;;;;;;6130441;23;20096;-74
2023/09/11 15:54:59;;;;;;;9.52;7.70;;;;;;;;;;6131150;23;20013;-77
2023/09/11 15:57:32;;;;;;;12.48;6.72;;;;;;;;;;6130559;23;20016;-74
2023/09/11 16:00:09;;;;;;;9.80;7.35;;;;;;;;;;6154543;23;20005;-75
2023/09/11 16:03:08;;;;;;;14.50;7.85;;;;;;;;;;6133051;23;20037;-73
2023/09/11 16:05:35;;;;;;;11.82;7.32;;;;;;;;;;6128037;23;20342;-74
2023/09/11 16:08:15;;;;;;;13.13;8.13;;;;;;;;;;6158233;23;20005;-75
2023/09/11 16:10:47;;;;;;;8.30;7.13;;;;;;;;;;6131104;23;20005;-74
2023/09/11 16:13:17;;;;;;;8.32;7.13;;;;;;;;;;6156871;23;20019;-77
2023/09/11 16:15:50;;;;;;;11.05;7.68;;;;;;;;;;6158519;23;20166;-77
2023/09/11 16:18:20;;;;;;;14.00;7.88;;;;;;;;;;6155846;23;20025;-74
2023/09/11 16:20:50;;;;;;;11.82;7.30;;;;;;;;;;6101849;23;20272;-76
2023/09/11 16:23:37;;;;;;;12.35;7.78;;;;;;;;;;6104695;23;20073;-75
2023/09/11 16:26:04;;;;;;;9.57;8.43;;;;;;;;;;6101691;23;20010;-74
2023/09/11 16:28:31;;;;;;;16.40;10.00;;;;;;;;;;6100779;23;20089;-75
2023/09/11 16:30:57;;;;;;;14.23;9.32;;;;;;;;;;6100287;23;20002;-77
2023/09/11 16:33:26;;;;;;;13.30;9.20;;;;;;;;;;6075682;23;20036;-74